createdAt,value
2023-05-06T00:01:53.326Z,11.69
2023-05-06T00:04:20.017Z,11.77
2023-05-06T00:06:47.175Z,11.71
2023-05-06T00:09:13.710Z,11.72
2023-05-06T00:11:40.611Z,11.74
2023-05-06T00:14:07.157Z,11.75
2023-05-06T00:16:33.695Z,11.75
2023-05-06T00:19:00.663Z,11.67
2023-05-06T00:21:27.408Z,11.75
2023-05-06T00:23:53.897Z,11.79
2023-05-06T00:26:20.382Z,11.76
2023-05-06T00:28:46.928Z,11.70
2023-05-06T00:31:13.509Z,11.59
2023-05-06T00:33:40.110Z,11.65
2023-05-06T00:36:06.946Z,11.69
2023-05-06T00:38:33.427Z,11.69
2023-05-06T00:40:59.888Z,11.67
2023-05-06T00:43:26.390Z,11.63
2023-05-06T00:45:53.190Z,11.67
2023-05-06T00:48:19.947Z,11.54
2023-05-06T00:50:46.570Z,11.47
2023-05-06T00:53:13.131Z,11.45
2023-05-06T00:55:39.904Z,11.44
2023-05-06T00:58:06.445Z,11.34
2023-05-06T01:00:32.967Z,11.31
2023-05-06T01:02:59.616Z,11.30
2023-05-06T01:05:32.777Z,11.32
2023-05-06T01:08:04.585Z,11.26
2023-05-06T01:10:42.926Z,11.23
2023-05-06T01:13:21.508Z,11.17
2023-05-06T01:15:54.203Z,11.12
2023-05-06T01:18:26.419Z,11.06
2023-05-06T01:20:55.872Z,11.06
2023-05-06T01:23:22.472Z,11.07
2023-05-06T01:25:50.822Z,11.05
2023-05-06T01:28:17.626Z,11.00
2023-05-06T01:30:47.127Z,11.03
2023-05-06T01:33:45.086Z,10.99
2023-05-06T01:36:40.988Z,10.95
2023-05-06T01:39:29.706Z,10.92
2023-05-06T01:41:57.688Z,10.98
2023-05-06T01:44:27.605Z,10.91
2023-05-06T01:46:56.145Z,10.91
2023-05-06T01:49:26.022Z,10.96
2023-05-06T01:51:53.744Z,10.96
2023-05-06T01:54:20.471Z,10.92
2023-05-06T01:56:47.058Z,10.95
2023-05-06T01:59:15.164Z,11.00
2023-05-06T02:01:41.728Z,11.24
2023-05-06T02:04:08.357Z,11.27
2023-05-06T02:06:35.698Z,11.22
2023-05-06T02:09:02.272Z,11.30
2023-05-06T02:11:30.467Z,11.18
2023-05-06T02:14:02.768Z,11.23
2023-05-06T02:16:32.482Z,11.11
2023-05-06T02:18:59.248Z,11.07
2023-05-06T02:21:26.500Z,11.00
2023-05-06T02:23:53.013Z,11.03
2023-05-06T02:26:19.544Z,10.99
2023-05-06T02:28:46.036Z,10.98
2023-05-06T02:31:16.224Z,10.97
2023-05-06T02:33:44.981Z,10.99
2023-05-06T02:36:11.516Z,10.96
2023-05-06T02:38:38.023Z,11.04
2023-05-06T02:41:04.574Z,11.00
2023-05-06T02:43:31.158Z,11.08
2023-05-06T02:45:58.412Z,11.16
2023-05-06T02:48:25.659Z,11.13
2023-05-06T02:50:52.140Z,11.08
2023-05-06T02:53:18.677Z,11.03
2023-05-06T02:55:45.175Z,10.99
2023-05-06T02:58:11.640Z,10.98
2023-05-06T03:00:38.169Z,11.00
2023-05-06T03:03:04.739Z,11.02
2023-05-06T03:05:31.463Z,11.03
2023-05-06T03:07:58.577Z,11.04
2023-05-06T03:10:25.541Z,11.03
2023-05-06T03:12:52.076Z,11.08
2023-05-06T03:15:18.948Z,11.02
2023-05-06T03:17:47.527Z,11.02
2023-05-06T03:20:14.394Z,11.02
2023-05-06T03:22:47.545Z,11.05
2023-05-06T03:25:14.257Z,10.96
2023-05-06T03:27:41.842Z,10.97
2023-05-06T03:30:16.277Z,10.90
2023-05-06T03:32:45.243Z,10.85
2023-05-06T03:35:16.497Z,10.88
2023-05-06T03:37:46.832Z,10.89
2023-05-06T03:40:13.709Z,10.77
2023-05-06T03:42:40.494Z,10.77
2023-05-06T03:45:08.002Z,10.76
2023-05-06T03:47:36.258Z,10.81
2023-05-06T03:50:04.777Z,10.72
2023-05-06T03:52:33.523Z,10.70
2023-05-06T03:55:00.739Z,10.63
2023-05-06T03:57:29.516Z,10.63
2023-05-06T03:59:56.436Z,10.65
2023-05-06T04:02:24.862Z,10.58
2023-05-06T04:04:51.510Z,10.55
2023-05-06T04:07:18.020Z,10.58
2023-05-06T04:09:44.555Z,10.52
2023-05-06T04:12:11.193Z,10.47
2023-05-06T04:14:37.755Z,10.43
2023-05-06T04:17:05.456Z,10.43
2023-05-06T04:19:33.665Z,10.49
2023-05-06T04:22:00.221Z,10.48
2023-05-06T04:24:28.482Z,10.42
2023-05-06T04:26:56.093Z,10.44
2023-05-06T04:29:23.277Z,10.42
2023-05-06T04:31:59.607Z,10.39
2023-05-06T04:34:29.001Z,10.46
2023-05-06T04:36:59.226Z,10.47
2023-05-06T04:39:48.756Z,10.45
2023-05-06T04:42:18.788Z,10.57
2023-05-06T04:44:54.850Z,10.68
2023-05-06T04:47:27.271Z,10.69
2023-05-06T04:49:54.730Z,10.74
2023-05-06T04:52:22.110Z,10.84
2023-05-06T04:54:48.653Z,10.87
2023-05-06T04:57:15.665Z,10.91
2023-05-06T04:59:44.339Z,10.95
2023-05-06T05:02:11.930Z,10.99
2023-05-06T05:04:41.203Z,11.03
2023-05-06T05:07:08.133Z,11.08
2023-05-06T05:09:35.699Z,11.26
2023-05-06T05:12:03.284Z,11.32
2023-05-06T05:14:33.076Z,11.37
2023-05-06T05:17:00.173Z,11.38
2023-05-06T05:19:26.780Z,11.43
2023-05-06T05:21:55.030Z,11.44
2023-05-06T05:24:23.521Z,11.56
2023-05-06T05:26:50.131Z,11.60
2023-05-06T05:29:17.247Z,11.63
2023-05-06T05:31:45.448Z,11.66
2023-05-06T05:34:12.579Z,11.66
2023-05-06T05:36:39.951Z,11.67
2023-05-06T05:39:10.131Z,11.64
2023-05-06T05:41:42.594Z,11.74
2023-05-06T05:44:09.084Z,11.85
2023-05-06T05:46:36.139Z,11.82
2023-05-06T05:49:04.748Z,11.90
2023-05-06T05:51:31.279Z,11.94
2023-05-06T05:53:58.734Z,12.02
2023-05-06T05:56:26.829Z,12.02
2023-05-06T05:58:53.805Z,12.00
2023-05-06T06:01:20.384Z,11.93
2023-05-06T06:03:47.742Z,12.01
2023-05-06T06:06:14.440Z,12.06
2023-05-06T06:08:41.503Z,12.08
2023-05-06T06:11:09.029Z,12.11
2023-05-06T06:13:40.001Z,12.08
2023-05-06T06:16:07.706Z,12.05
2023-05-06T06:18:34.372Z,12.08
2023-05-06T06:21:00.997Z,12.07
2023-05-06T06:23:27.511Z,12.12
2023-05-06T06:25:54.077Z,12.13
2023-05-06T06:28:21.169Z,12.23
2023-05-06T06:30:47.728Z,12.32
2023-05-06T06:33:14.195Z,12.23
2023-05-06T06:35:40.905Z,12.20
2023-05-06T06:38:07.373Z,12.35
2023-05-06T06:40:33.916Z,12.26
2023-05-06T06:43:01.105Z,12.29
2023-05-06T06:45:46.550Z,12.37
2023-05-06T06:48:13.112Z,12.40
2023-05-06T06:50:39.668Z,12.47
2023-05-06T06:53:06.566Z,12.53
2023-05-06T06:55:33.286Z,12.36
2023-05-06T06:57:59.718Z,12.36
2023-05-06T07:00:26.366Z,12.36
2023-05-06T07:02:53.900Z,12.38
2023-05-06T07:05:20.464Z,12.59
2023-05-06T07:07:46.972Z,12.35
2023-05-06T07:10:13.785Z,12.53
2023-05-06T07:12:40.243Z,12.55
2023-05-06T07:15:08.856Z,12.64
2023-05-06T07:17:35.957Z,12.60
2023-05-06T07:20:02.880Z,12.64
2023-05-06T07:22:29.324Z,12.81
2023-05-06T07:24:55.815Z,12.83
2023-05-06T07:27:22.314Z,12.97
2023-05-06T07:29:48.747Z,13.25
2023-05-06T07:32:15.203Z,13.44
2023-05-06T07:34:41.636Z,13.62
2023-05-06T07:37:08.249Z,13.73
2023-05-06T07:39:34.855Z,14.17
2023-05-06T07:42:01.838Z,14.24
2023-05-06T07:44:28.330Z,14.43
2023-05-06T07:46:54.862Z,14.28
2023-05-06T07:49:21.705Z,14.14
2023-05-06T07:51:48.352Z,14.22
2023-05-06T07:54:15.082Z,14.24
2023-05-06T07:56:41.797Z,14.25
2023-05-06T07:59:08.372Z,14.19
2023-05-06T08:01:34.938Z,14.19
2023-05-06T08:04:01.500Z,13.84
2023-05-06T08:06:28.061Z,14.03
2023-05-06T08:08:54.547Z,13.92
2023-05-06T08:11:20.997Z,13.94
2023-05-06T08:13:47.448Z,13.95
2023-05-06T08:16:14.063Z,13.99
2023-05-06T08:18:40.699Z,13.90
2023-05-06T08:21:07.246Z,13.91
2023-05-06T08:23:41.494Z,13.98
2023-05-06T08:26:07.916Z,14.00
2023-05-06T08:28:34.603Z,14.28
2023-05-06T08:31:01.186Z,14.30
2023-05-06T08:33:27.839Z,14.30
2023-05-06T08:35:57.546Z,14.21
2023-05-06T08:38:25.871Z,14.17
2023-05-06T08:40:54.547Z,14.18
2023-05-06T08:43:22.549Z,14.19
2023-05-06T08:45:49.426Z,14.29
2023-05-06T08:48:16.651Z,14.43
2023-05-06T08:50:43.476Z,14.75
2023-05-06T08:53:14.030Z,14.59
2023-05-06T08:55:42.518Z,14.57
2023-05-06T08:58:13.287Z,14.56
2023-05-06T09:00:39.943Z,14.43
2023-05-06T09:03:10.693Z,14.71
2023-05-06T09:05:39.298Z,14.76
2023-05-06T09:08:05.791Z,14.68
2023-05-06T09:10:37.768Z,14.78
2023-05-06T09:13:04.257Z,14.98
2023-05-06T09:15:43.284Z,14.83
2023-05-06T09:18:11.017Z,14.76
2023-05-06T09:20:42.040Z,15.08
2023-05-06T09:23:09.612Z,14.97
2023-05-06T09:25:36.951Z,15.00
2023-05-06T09:28:13.289Z,15.11
2023-05-06T09:30:42.170Z,15.11
2023-05-06T09:33:09.369Z,14.99
2023-05-06T09:35:43.612Z,14.95
2023-05-06T09:38:10.525Z,14.67
2023-05-06T09:40:38.055Z,14.65
2023-05-06T09:43:05.668Z,14.55
2023-05-06T09:45:32.995Z,14.58
2023-05-06T09:48:00.261Z,14.22
2023-05-06T09:50:27.332Z,14.54
2023-05-06T09:52:55.986Z,14.66
2023-05-06T09:55:23.480Z,14.75
2023-05-06T09:57:58.143Z,14.94
2023-05-06T10:00:28.155Z,15.07
2023-05-06T10:02:55.101Z,15.10
2023-05-06T10:05:22.779Z,15.37
2023-05-06T10:07:52.103Z,15.57
2023-05-06T10:10:18.926Z,15.59
2023-05-06T10:12:48.953Z,15.67
2023-05-06T10:15:15.728Z,15.50
2023-05-06T10:17:45.210Z,15.47
2023-05-06T10:20:13.927Z,15.56
2023-05-06T10:22:40.325Z,15.50
2023-05-06T10:25:25.479Z,15.73
2023-05-06T10:27:52.765Z,15.95
2023-05-06T10:30:20.082Z,15.80
2023-05-06T10:32:46.779Z,16.10
2023-05-06T10:35:27.508Z,16.34
2023-05-06T10:37:55.059Z,16.32
2023-05-06T10:40:23.085Z,16.49
2023-05-06T10:42:49.552Z,16.39
2023-05-06T10:45:16.584Z,16.23
2023-05-06T10:47:55.495Z,16.49
2023-05-06T10:50:26.229Z,16.73
2023-05-06T10:52:57.731Z,16.82
2023-05-06T10:55:34.859Z,16.89
2023-05-06T10:58:12.714Z,17.00
2023-05-06T11:00:39.266Z,16.73
2023-05-06T11:03:18.681Z,16.74
2023-05-06T11:05:52.303Z,16.99
2023-05-06T11:08:26.285Z,16.85
2023-05-06T11:10:53.990Z,16.68
2023-05-06T11:13:23.467Z,16.58
2023-05-06T11:15:51.927Z,16.44
2023-05-06T11:18:24.433Z,16.31
2023-05-06T11:21:02.330Z,16.34
2023-05-06T11:23:49.349Z,16.50
2023-05-06T11:26:16.469Z,16.73
2023-05-06T11:28:45.132Z,16.75
2023-05-06T11:31:13.051Z,17.12
2023-05-06T11:33:49.770Z,17.36
2023-05-06T11:36:18.182Z,17.32
2023-05-06T11:38:56.323Z,17.15
2023-05-06T11:41:23.464Z,17.02
2023-05-06T11:43:51.749Z,16.83
2023-05-06T11:46:23.579Z,17.42
2023-05-06T11:49:17.202Z,17.50
2023-05-06T11:51:43.700Z,17.67
2023-05-06T11:54:11.000Z,17.65
2023-05-06T11:56:49.678Z,17.71
2023-05-06T11:59:16.638Z,17.69
2023-05-06T12:01:44.073Z,17.69
2023-05-06T12:04:12.695Z,17.88
2023-05-06T12:06:40.060Z,17.97
2023-05-06T12:09:10.223Z,17.77
2023-05-06T12:11:37.956Z,17.50
2023-05-06T12:14:06.910Z,17.50
2023-05-06T12:16:35.477Z,17.36
2023-05-06T12:19:03.023Z,17.32
2023-05-06T12:21:30.429Z,17.26
2023-05-06T12:23:59.596Z,17.15
2023-05-06T12:26:31.862Z,17.25
2023-05-06T12:29:07.695Z,17.14
2023-05-06T12:31:34.700Z,17.13
2023-05-06T12:34:01.425Z,17.18
2023-05-06T12:36:28.174Z,17.28
2023-05-06T12:38:59.571Z,17.31
2023-05-06T12:41:37.289Z,17.46
2023-05-06T12:44:24.315Z,17.48
2023-05-06T12:46:51.956Z,17.40
2023-05-06T12:49:18.417Z,17.58
2023-05-06T12:51:47.122Z,17.72
2023-05-06T12:54:30.667Z,17.77
2023-05-06T12:56:57.406Z,17.67
2023-05-06T12:59:25.972Z,17.77
2023-05-06T13:01:52.542Z,17.99
2023-05-06T13:04:19.100Z,18.00
2023-05-06T13:06:46.279Z,17.89
2023-05-06T13:09:15.203Z,17.91
2023-05-06T13:11:41.901Z,18.08
2023-05-06T13:14:09.045Z,18.10
2023-05-06T13:16:35.686Z,18.13
2023-05-06T13:19:03.328Z,18.19
2023-05-06T13:21:29.815Z,18.15
2023-05-06T13:23:56.339Z,18.18
2023-05-06T13:26:22.924Z,18.05
2023-05-06T13:28:49.626Z,17.97
2023-05-06T13:31:16.191Z,17.96
2023-05-06T13:33:42.731Z,17.96
2023-05-06T13:36:09.587Z,18.03
2023-05-06T13:38:36.216Z,18.09
2023-05-06T13:41:02.937Z,18.07
2023-05-06T13:43:29.489Z,18.14
2023-05-06T13:45:56.268Z,18.21
2023-05-06T13:48:22.892Z,18.28
2023-05-06T13:50:49.551Z,18.21
2023-05-06T13:53:16.513Z,18.12
2023-05-06T13:55:43.608Z,18.03
2023-05-06T13:58:10.972Z,18.00
2023-05-06T14:00:37.500Z,18.11
2023-05-06T14:03:04.380Z,18.08
2023-05-06T14:05:31.100Z,18.14
2023-05-06T14:07:57.729Z,18.20
2023-05-06T14:10:24.343Z,18.11
2023-05-06T14:12:51.306Z,18.16
2023-05-06T14:15:17.917Z,18.20
2023-05-06T14:17:44.509Z,18.39
2023-05-06T14:20:11.400Z,18.31
2023-05-06T14:22:40.623Z,18.30
2023-05-06T14:25:08.099Z,18.26
2023-05-06T14:27:34.887Z,18.36
2023-05-06T14:30:02.509Z,18.55
2023-05-06T14:32:29.191Z,18.63
2023-05-06T14:34:56.020Z,18.66
2023-05-06T14:37:22.552Z,18.55
2023-05-06T14:39:49.718Z,18.55
2023-05-06T14:42:16.605Z,18.56
2023-05-06T14:44:45.082Z,18.62
2023-05-06T14:47:11.549Z,18.76
2023-05-06T14:49:38.049Z,18.68
2023-05-06T14:52:04.613Z,18.61
2023-05-06T14:54:31.223Z,18.67
2023-05-06T14:57:01.268Z,18.65
2023-05-06T14:59:28.060Z,18.65
2023-05-06T15:01:56.344Z,18.69
2023-05-06T15:04:22.942Z,18.67
2023-05-06T15:06:49.499Z,18.71
2023-05-06T15:09:16.082Z,18.69
2023-05-06T15:11:44.128Z,18.63
2023-05-06T15:14:10.820Z,18.48
2023-05-06T15:16:37.404Z,18.34
2023-05-06T15:19:04.564Z,18.17
2023-05-06T15:21:31.585Z,18.06
2023-05-06T15:23:58.317Z,17.99
2023-05-06T15:26:24.895Z,17.88
2023-05-06T15:28:51.438Z,17.83
2023-05-06T15:31:18.118Z,17.82
2023-05-06T15:33:44.730Z,17.69
2023-05-06T15:36:11.279Z,17.64
2023-05-06T15:38:57.658Z,17.70
2023-05-06T15:41:30.641Z,17.70
2023-05-06T15:43:58.335Z,17.74
2023-05-06T15:46:26.546Z,17.72
2023-05-06T15:49:09.059Z,17.69
2023-05-06T15:51:39.921Z,17.67
2023-05-06T15:54:06.795Z,17.66
2023-05-06T15:56:39.437Z,17.65
2023-05-06T15:59:08.385Z,17.70
2023-05-06T16:01:53.859Z,17.74
2023-05-06T16:04:22.414Z,17.90
2023-05-06T16:06:49.562Z,17.85
2023-05-06T16:09:16.066Z,17.84
2023-05-06T16:11:42.551Z,17.94
2023-05-06T16:14:09.053Z,17.82
2023-05-06T16:16:36.075Z,17.91
2023-05-06T16:19:02.624Z,17.90
2023-05-06T16:21:29.213Z,17.90
2023-05-06T16:23:56.111Z,17.91
2023-05-06T16:26:22.842Z,17.88
2023-05-06T16:28:49.347Z,17.85
2023-05-06T16:31:16.062Z,17.96
2023-05-06T16:33:42.647Z,17.99
2023-05-06T16:36:09.295Z,18.22
2023-05-06T16:38:36.333Z,18.23
2023-05-06T16:41:02.846Z,18.29
2023-05-06T16:43:29.356Z,18.28
2023-05-06T16:45:55.908Z,18.30
2023-05-06T16:48:22.608Z,18.27
2023-05-06T16:50:49.184Z,18.30
2023-05-06T16:53:17.267Z,18.22
2023-05-06T16:55:49.004Z,18.27
2023-05-06T16:58:15.966Z,18.13
2023-05-06T17:00:42.657Z,18.02
2023-05-06T17:03:09.468Z,17.87
2023-05-06T17:05:36.468Z,17.82
2023-05-06T17:08:07.059Z,17.74
2023-05-06T17:10:33.708Z,17.72
2023-05-06T17:13:00.302Z,17.61
2023-05-06T17:15:26.854Z,17.55
2023-05-06T17:17:53.496Z,17.46
2023-05-06T17:20:20.194Z,17.47
2023-05-06T17:22:46.994Z,17.40
2023-05-06T17:25:13.837Z,17.27
2023-05-06T17:27:40.437Z,17.19
2023-05-06T17:30:09.616Z,17.12
2023-05-06T17:32:36.502Z,17.10
2023-05-06T17:35:03.364Z,17.08
2023-05-06T17:37:31.031Z,16.96
2023-05-06T17:39:57.875Z,16.92
2023-05-06T17:42:24.464Z,16.88
2023-05-06T17:44:51.113Z,16.82
2023-05-06T17:47:17.742Z,16.78
2023-05-06T17:49:45.100Z,16.67
2023-05-06T17:52:11.676Z,16.60
2023-05-06T17:54:38.263Z,16.54
2023-05-06T17:57:04.734Z,16.46
2023-05-06T17:59:31.448Z,16.39
2023-05-06T18:01:57.976Z,16.25
2023-05-06T18:04:24.496Z,16.24
2023-05-06T18:06:51.335Z,16.19
2023-05-06T18:09:17.951Z,16.08
2023-05-06T18:11:44.500Z,16.02
2023-05-06T18:14:11.368Z,15.90
2023-05-06T18:16:38.203Z,15.84
2023-05-06T18:19:05.206Z,15.76
2023-05-06T18:21:33.918Z,15.65
2023-05-06T18:24:05.914Z,15.57
2023-05-06T18:26:45.360Z,15.52
2023-05-06T18:29:12.876Z,15.43
2023-05-06T18:31:39.807Z,15.36
2023-05-06T18:34:06.790Z,15.31
2023-05-06T18:36:34.943Z,15.17
2023-05-06T18:39:02.511Z,15.08
2023-05-06T18:41:29.135Z,15.01
2023-05-06T18:43:55.627Z,14.97
2023-05-06T18:46:22.653Z,14.91
2023-05-06T18:48:49.230Z,14.86
2023-05-06T18:51:17.379Z,14.79
2023-05-06T18:53:45.078Z,14.71
2023-05-06T18:56:14.116Z,14.65
2023-05-06T18:58:41.146Z,14.54
2023-05-06T19:01:10.045Z,14.45
2023-05-06T19:03:37.395Z,14.43
2023-05-06T19:06:07.650Z,14.41
2023-05-06T19:08:34.281Z,14.35
2023-05-06T19:11:01.538Z,14.32
2023-05-06T19:13:28.336Z,14.29
2023-05-06T19:15:55.069Z,14.26
2023-05-06T19:18:21.670Z,14.18
2023-05-06T19:20:48.205Z,14.19
2023-05-06T19:23:14.708Z,14.17
2023-05-06T19:25:41.233Z,14.03
2023-05-06T19:28:07.926Z,14.07
2023-05-06T19:30:35.332Z,14.01
2023-05-06T19:33:02.989Z,13.91
2023-05-06T19:35:29.592Z,13.87
2023-05-06T19:37:56.184Z,13.87
2023-05-06T19:40:22.818Z,13.88
2023-05-06T19:42:49.524Z,13.84
2023-05-06T19:45:18.135Z,13.66
2023-05-06T19:47:45.782Z,13.71
2023-05-06T19:50:13.013Z,13.66
2023-05-06T19:52:40.112Z,13.64
2023-05-06T19:55:07.283Z,13.60
2023-05-06T19:57:33.998Z,13.64
2023-05-06T20:00:05.102Z,13.71
2023-05-06T20:02:32.892Z,13.60
2023-05-06T20:05:00.458Z,13.61
2023-05-06T20:07:27.437Z,13.59
2023-05-06T20:09:55.895Z,13.63
2023-05-06T20:12:23.488Z,13.63
2023-05-06T20:14:50.165Z,13.63
2023-05-06T20:17:16.941Z,13.61
2023-05-06T20:19:44.582Z,13.54
2023-05-06T20:22:11.791Z,13.53
2023-05-06T20:24:38.306Z,13.53
2023-05-06T20:27:04.817Z,13.52
2023-05-06T20:29:31.447Z,13.50
2023-05-06T20:31:58.449Z,13.44
2023-05-06T20:34:25.606Z,13.49
2023-05-06T20:36:54.329Z,13.48
2023-05-06T20:39:21.933Z,13.43
2023-05-06T20:41:48.433Z,13.42
2023-05-06T20:44:15.094Z,13.30
2023-05-06T20:46:41.552Z,13.29
2023-05-06T20:49:08.041Z,13.27
2023-05-06T20:51:34.535Z,13.27
2023-05-06T20:54:01.321Z,13.21
2023-05-06T20:56:28.347Z,13.14
2023-05-06T20:58:55.863Z,13.14
2023-05-06T21:01:23.890Z,13.14
2023-05-06T21:03:50.808Z,13.08
2023-05-06T21:06:18.174Z,13.08
2023-05-06T21:08:46.297Z,12.99
2023-05-06T21:11:13.725Z,12.97
2023-05-06T21:13:40.756Z,12.93
2023-05-06T21:16:07.563Z,12.91
2023-05-06T21:18:35.877Z,12.85
2023-05-06T21:21:02.525Z,12.82
2023-05-06T21:23:29.059Z,12.80
2023-05-06T21:25:55.663Z,12.79
2023-05-06T21:28:22.194Z,12.71
2023-05-06T21:30:48.699Z,12.68
2023-05-06T21:33:15.215Z,12.62
2023-05-06T21:35:41.705Z,12.68
2023-05-06T21:38:08.276Z,12.69
2023-05-06T21:40:34.785Z,12.80
2023-05-06T21:43:02.238Z,12.77
2023-05-06T21:45:29.107Z,12.77
2023-05-06T21:47:55.788Z,12.81
2023-05-06T21:50:22.428Z,12.72
2023-05-06T21:52:48.912Z,12.63
2023-05-06T21:55:15.569Z,12.52
2023-05-06T21:57:43.455Z,12.48
2023-05-06T22:00:12.405Z,12.45
2023-05-06T22:02:40.314Z,12.39
2023-05-06T22:05:07.974Z,12.32
2023-05-06T22:07:35.686Z,12.33
2023-05-06T22:10:02.232Z,12.30
2023-05-06T22:12:28.748Z,12.26
2023-05-06T22:14:55.241Z,12.27
2023-05-06T22:17:22.241Z,12.26
2023-05-06T22:19:49.003Z,12.29
2023-05-06T22:22:16.160Z,12.17
2023-05-06T22:24:42.745Z,12.19
2023-05-06T22:27:09.347Z,12.27
2023-05-06T22:29:36.030Z,12.24
2023-05-06T22:32:03.287Z,12.14
2023-05-06T22:34:29.966Z,12.08
2023-05-06T22:36:58.332Z,12.03
2023-05-06T22:39:26.842Z,12.04
2023-05-06T22:41:53.460Z,12.08
2023-05-06T22:44:20.020Z,11.99
2023-05-06T22:46:46.665Z,11.94
2023-05-06T22:49:14.458Z,11.91
2023-05-06T22:51:41.312Z,11.89
2023-05-06T22:54:07.746Z,11.88
2023-05-06T22:56:34.231Z,11.70
2023-05-06T22:59:00.877Z,11.64
2023-05-06T23:01:32.013Z,11.72
2023-05-06T23:03:59.614Z,11.72
2023-05-06T23:06:27.665Z,11.73
2023-05-06T23:08:54.422Z,11.81
2023-05-06T23:11:20.905Z,11.77
2023-05-06T23:13:47.707Z,11.75
2023-05-06T23:16:14.711Z,11.75
2023-05-06T23:18:41.614Z,11.66
2023-05-06T23:21:08.578Z,11.66
2023-05-06T23:23:35.306Z,11.58
2023-05-06T23:26:01.837Z,11.64
2023-05-06T23:28:28.596Z,11.72
2023-05-06T23:30:55.128Z,11.60
2023-05-06T23:33:21.679Z,11.56
2023-05-06T23:35:48.363Z,11.48
2023-05-06T23:38:14.855Z,11.45
2023-05-06T23:40:41.311Z,11.44
2023-05-06T23:43:09.828Z,11.45
2023-05-06T23:45:36.411Z,11.41
2023-05-06T23:48:03.366Z,11.36
2023-05-06T23:50:29.920Z,11.33
2023-05-06T23:52:56.406Z,11.26
2023-05-06T23:55:22.885Z,11.33
2023-05-06T23:57:49.442Z,11.28
